createdAt,value
2023-04-08T00:00:11.257Z,100900.97
2023-04-08T00:02:41.339Z,100906.19
2023-04-08T00:05:12.303Z,100893.25
2023-04-08T00:07:44.933Z,100907.75
2023-04-08T00:10:15.115Z,100914.63
2023-04-08T00:12:45.176Z,100904.88
2023-04-08T00:15:15.301Z,100897.22
2023-04-08T00:17:45.919Z,100888.31
2023-04-08T00:20:16.916Z,100885.03
2023-04-08T00:22:51.189Z,100877.75
2023-04-08T00:25:24.088Z,100882.97
2023-04-08T00:27:56.028Z,100885.38
2023-04-08T00:30:27.751Z,100877.28
2023-04-08T00:32:58.796Z,100865.19
2023-04-08T00:35:29.511Z,100857.47
2023-04-08T00:38:02.014Z,100853.84
2023-04-08T00:40:32.126Z,100869.16
2023-04-08T00:43:02.534Z,100866.72
2023-04-08T00:45:33.050Z,100886.03
2023-04-08T00:48:04.862Z,100891.22
2023-04-08T00:50:36.301Z,100893.59
2023-04-08T00:53:08.721Z,100891.97
2023-04-08T00:55:39.305Z,100892.75
2023-04-08T00:58:09.844Z,100892.31
2023-04-08T01:00:51.788Z,100895.94
2023-04-08T01:03:29.872Z,100890.66
2023-04-08T01:06:12.353Z,100883.41
2023-04-08T01:08:47.130Z,100891.41
2023-04-08T01:11:18.476Z,100889.78
2023-04-08T01:13:51.115Z,100889.78
2023-04-08T01:16:23.425Z,100890.19
2023-04-08T01:18:55.347Z,100888.53
2023-04-08T01:21:29.307Z,100893.38
2023-04-08T01:24:22.637Z,100884.03
2023-04-08T01:26:55.190Z,100877.16
2023-04-08T01:29:26.808Z,100880.31
2023-04-08T01:31:58.750Z,100873.44
2023-04-08T01:34:31.457Z,100877.84
2023-04-08T01:37:02.900Z,100884.63
2023-04-08T01:39:34.771Z,100878.91
2023-04-08T01:42:07.910Z,100862.34
2023-04-08T01:44:40.221Z,100867.13
2023-04-08T01:47:12.106Z,100858.63
2023-04-08T01:49:44.357Z,100863.38
2023-04-08T01:52:16.853Z,100860.50
2023-04-08T01:54:46.985Z,100851.97
2023-04-08T01:57:30.185Z,100851.03
2023-04-08T02:00:08.949Z,100855.44
2023-04-08T02:02:41.161Z,100851.38
2023-04-08T02:05:12.444Z,100846.47
2023-04-08T02:07:43.116Z,100851.28
2023-04-08T02:10:14.440Z,100846.03
2023-04-08T02:12:46.811Z,100841.56
2023-04-08T02:15:17.821Z,100838.75
2023-04-08T02:17:54.180Z,100837.97
2023-04-08T02:20:33.622Z,100839.94
2023-04-08T02:23:13.722Z,100843.59
2023-04-08T02:25:47.979Z,100848.41
2023-04-08T02:28:23.639Z,100863.69
2023-04-08T02:30:57.193Z,100868.53
2023-04-08T02:33:28.138Z,100867.75
2023-04-08T02:36:00.275Z,100881.47
2023-04-08T02:38:31.126Z,100877.81
2023-04-08T02:41:01.998Z,100883.44
2023-04-08T02:43:34.266Z,100883.44
2023-04-08T02:46:05.596Z,100878.63
2023-04-08T02:48:36.344Z,100881.47
2023-04-08T02:51:07.146Z,100885.47
2023-04-08T02:53:37.635Z,100879.81
2023-04-08T02:56:09.445Z,100881.84
2023-04-08T02:58:41.550Z,100873.72
2023-04-08T03:01:12.259Z,100875.75
2023-04-08T03:03:42.244Z,100885.41
2023-04-08T03:06:12.921Z,100884.56
2023-04-08T03:08:43.466Z,100882.13
2023-04-08T03:11:13.703Z,100874.84
2023-04-08T03:13:47.145Z,100871.25
2023-04-08T03:16:17.743Z,100867.13
2023-04-08T03:18:47.511Z,100863.91
2023-04-08T03:21:35.227Z,100872.72
2023-04-08T03:24:05.929Z,100875.94
2023-04-08T03:26:36.122Z,100875.47
2023-04-08T03:29:10.408Z,100875.03
2023-04-08T03:31:41.254Z,100870.56
2023-04-08T03:34:11.439Z,100869.31
2023-04-08T03:36:41.841Z,100881.00
2023-04-08T03:39:12.501Z,100868.47
2023-04-08T03:41:42.392Z,100865.63
2023-04-08T03:44:14.006Z,100877.28
2023-04-08T03:46:44.525Z,100884.47
2023-04-08T03:49:14.763Z,100890.50
2023-04-08T03:51:44.901Z,100910.22
2023-04-08T03:54:15.564Z,100910.59
2023-04-08T03:56:46.131Z,100916.59
2023-04-08T03:59:18.656Z,100916.59
2023-04-08T04:01:49.113Z,100911.34
2023-04-08T04:04:19.613Z,100907.25
2023-04-08T04:06:50.241Z,100919.72
2023-04-08T04:09:34.119Z,100922.91
2023-04-08T04:12:03.949Z,100943.03
2023-04-08T04:14:36.322Z,100942.19
2023-04-08T04:17:06.470Z,100953.47
2023-04-08T04:19:36.403Z,100964.75
2023-04-08T04:22:06.781Z,100963.94
2023-04-08T04:24:37.415Z,100970.38
2023-04-08T04:27:08.040Z,100973.19
2023-04-08T04:29:39.978Z,100977.66
2023-04-08T04:32:10.590Z,100978.03
2023-04-08T04:34:41.016Z,100976.03
2023-04-08T04:37:11.536Z,100968.41
2023-04-08T04:39:42.030Z,100986.94
2023-04-08T04:42:12.807Z,100988.94
2023-04-08T04:44:45.329Z,101002.69
2023-04-08T04:47:16.494Z,100995.81
2023-04-08T04:49:47.464Z,100991.00
2023-04-08T04:52:17.458Z,100989.84
2023-04-08T04:54:47.921Z,100985.38
2023-04-08T04:57:18.694Z,100985.38
2023-04-08T04:59:51.864Z,100989.00
2023-04-08T05:02:22.541Z,100993.00
2023-04-08T05:04:53.995Z,101003.09
2023-04-08T05:07:24.023Z,101012.38
2023-04-08T05:09:54.986Z,101016.00
2023-04-08T05:12:25.479Z,101017.66
2023-04-08T05:14:57.067Z,101020.13
2023-04-08T05:17:27.161Z,101027.81
2023-04-08T05:19:57.936Z,101036.72
2023-04-08T05:22:28.044Z,101042.81
2023-04-08T05:24:58.526Z,101043.28
2023-04-08T05:27:28.535Z,101040.88
2023-04-08T05:30:01.421Z,101050.25
2023-04-08T05:32:33.193Z,101055.50
2023-04-08T05:35:06.655Z,101077.34
2023-04-08T05:37:36.476Z,101086.25
2023-04-08T05:40:08.003Z,101091.16
2023-04-08T05:42:38.848Z,101090.41
2023-04-08T05:45:13.669Z,101089.28
2023-04-08T05:47:44.219Z,101086.91
2023-04-08T05:50:15.120Z,101087.00
2023-04-08T05:52:49.002Z,101084.63
2023-04-08T05:55:19.540Z,101078.59
2023-04-08T05:57:50.031Z,101098.44
2023-04-08T06:00:23.410Z,101083.56
2023-04-08T06:02:54.354Z,101090.84
2023-04-08T06:05:24.453Z,101098.16
2023-04-08T06:07:54.977Z,101101.06
2023-04-08T06:10:25.672Z,101091.88
2023-04-08T06:12:55.745Z,101093.94
2023-04-08T06:15:29.643Z,101107.28
2023-04-08T06:17:59.634Z,101116.22
2023-04-08T06:20:30.538Z,101118.31
2023-04-08T06:23:00.629Z,101106.25
2023-04-08T06:25:31.204Z,101106.69
2023-04-08T06:28:01.229Z,101107.94
2023-04-08T06:30:33.280Z,101104.41
2023-04-08T06:33:04.242Z,101109.69
2023-04-08T06:35:34.249Z,101099.66
2023-04-08T06:38:04.987Z,101086.00
2023-04-08T06:40:35.944Z,101081.94
2023-04-08T06:43:07.486Z,101084.03
2023-04-08T06:45:39.521Z,101088.56
2023-04-08T06:48:10.291Z,101091.81
2023-04-08T06:50:40.824Z,101104.38
2023-04-08T06:53:11.244Z,101107.25
2023-04-08T06:55:41.739Z,101097.25
2023-04-08T06:58:12.264Z,101098.13
2023-04-08T07:00:45.735Z,101094.56
2023-04-08T07:03:15.801Z,101092.22
2023-04-08T07:05:46.481Z,101095.09
2023-04-08T07:08:17.212Z,101097.19
2023-04-08T07:10:47.665Z,101097.59
2023-04-08T07:13:17.989Z,101089.19
2023-04-08T07:15:50.100Z,101094.91
2023-04-08T07:18:21.906Z,101080.41
2023-04-08T07:20:55.466Z,101071.53
2023-04-08T07:23:26.288Z,101070.00
2023-04-08T07:25:56.837Z,101057.47
2023-04-08T07:28:27.851Z,101057.13
2023-04-08T07:31:00.238Z,101052.25
2023-04-08T07:33:31.036Z,101050.28
2023-04-08T07:36:00.992Z,101053.09
2023-04-08T07:38:31.548Z,101065.66
2023-04-08T07:41:02.215Z,101061.63
2023-04-08T07:43:35.075Z,101060.06
2023-04-08T07:46:06.969Z,101052.41
2023-04-08T07:48:37.816Z,101051.19
2023-04-08T07:51:11.078Z,101043.16
2023-04-08T07:53:43.252Z,101045.63
2023-04-08T07:56:18.728Z,101031.09
2023-04-08T07:58:53.307Z,101031.53
2023-04-08T08:01:28.371Z,101028.31
2023-04-08T08:03:59.055Z,101028.78
2023-04-08T08:06:29.651Z,101037.31
2023-04-08T08:09:01.110Z,101039.00
2023-04-08T08:11:31.617Z,101031.38
2023-04-08T08:14:02.144Z,101031.91
2023-04-08T08:16:36.862Z,101027.56
2023-04-08T08:19:09.088Z,101025.59
2023-04-08T08:21:40.264Z,101031.34
2023-04-08T08:24:10.811Z,101030.22
2023-04-08T08:26:41.481Z,101021.81
2023-04-08T08:29:12.110Z,101025.13
2023-04-08T08:31:44.791Z,101018.31
2023-04-08T08:34:14.758Z,101021.22
2023-04-08T08:36:45.225Z,101019.31
2023-04-08T08:39:15.274Z,101017.44
2023-04-08T08:41:47.080Z,101016.72
2023-04-08T08:44:17.632Z,101009.91
2023-04-08T08:46:51.732Z,101003.50
2023-04-08T08:49:22.060Z,100995.84
2023-04-08T08:51:54.349Z,101006.84
2023-04-08T08:54:24.963Z,101004.84
2023-04-08T08:56:55.855Z,100996.81
2023-04-08T08:59:25.989Z,100990.00
2023-04-08T09:01:58.554Z,100988.44
2023-04-08T09:04:28.832Z,100991.28
2023-04-08T09:07:14.368Z,100992.94
2023-04-08T09:09:53.121Z,100999.47
2023-04-08T09:12:23.240Z,100992.66
2023-04-08T09:14:54.463Z,100991.47
2023-04-08T09:17:38.252Z,100983.44
2023-04-08T09:20:12.414Z,100979.03
2023-04-08T09:23:01.811Z,100985.53
2023-04-08T09:25:34.123Z,100980.72
2023-04-08T09:28:04.809Z,100970.59
2023-04-08T09:30:36.051Z,100969.44
2023-04-08T09:33:08.583Z,100963.41
2023-04-08T09:35:39.132Z,100960.59
2023-04-08T09:38:09.643Z,100964.66
2023-04-08T09:40:41.608Z,100957.38
2023-04-08T09:43:15.562Z,100953.38
2023-04-08T09:45:49.346Z,100942.47
2023-04-08T09:48:29.926Z,100952.19
2023-04-08T09:51:02.678Z,100938.47
2023-04-08T09:53:41.374Z,100937.28
2023-04-08T09:56:16.703Z,100932.41
2023-04-08T09:58:56.741Z,100932.81
2023-04-08T10:01:41.141Z,100930.81
2023-04-08T10:04:21.224Z,100919.06
2023-04-08T10:07:00.362Z,100924.34
2023-04-08T10:09:33.121Z,100926.78
2023-04-08T10:12:06.941Z,100925.59
2023-04-08T10:14:37.558Z,100926.81
2023-04-08T10:17:30.534Z,100916.69
2023-04-08T10:20:03.136Z,100912.22
2023-04-08T10:25:49.841Z,100897.69
2023-04-08T10:28:30.304Z,100901.75
2023-04-08T10:31:01.206Z,100896.50
2023-04-08T10:33:40.074Z,100889.22
2023-04-08T10:36:15.780Z,100892.06
2023-04-08T10:38:47.744Z,100894.13
2023-04-08T10:41:27.911Z,100883.19
2023-04-08T10:43:57.897Z,100877.09
2023-04-08T10:46:31.385Z,100869.81
2023-04-08T10:49:04.741Z,100868.59
2023-04-08T10:51:36.130Z,100865.41
2023-04-08T10:54:10.991Z,100864.16
2023-04-08T10:56:48.164Z,100847.13
2023-04-08T10:59:20.638Z,100854.44
2023-04-08T11:01:50.731Z,100846.34
2023-04-08T11:04:23.954Z,100850.81
2023-04-08T11:06:55.002Z,100856.06
2023-04-08T11:09:25.156Z,100856.50
2023-04-08T11:11:57.755Z,100862.16
2023-04-08T11:14:29.153Z,100854.47
2023-04-08T11:17:01.912Z,100850.44
2023-04-08T11:19:32.874Z,100843.53
2023-04-08T11:22:02.965Z,100845.16
2023-04-08T11:24:33.785Z,100837.47
2023-04-08T11:27:07.164Z,100827.38
2023-04-08T11:29:38.765Z,100821.28
2023-04-08T11:32:09.585Z,100826.16
2023-04-08T11:34:43.663Z,100822.53
2023-04-08T11:37:14.259Z,100818.88
2023-04-08T11:39:47.153Z,100833.06
2023-04-08T11:42:33.218Z,100827.78
2023-04-08T11:45:04.308Z,100811.59
2023-04-08T11:47:35.847Z,100826.19
2023-04-08T11:50:06.836Z,100820.50
2023-04-08T11:52:49.107Z,100831.47
2023-04-08T11:55:27.426Z,100831.47
2023-04-08T11:58:06.685Z,100832.69
2023-04-08T12:00:38.103Z,100824.56
2023-04-08T12:03:09.271Z,100828.63
2023-04-08T12:05:39.446Z,100822.94
2023-04-08T12:08:10.230Z,100822.13
2023-04-08T12:10:40.733Z,100814.44
2023-04-08T12:13:12.683Z,100807.56
2023-04-08T12:15:43.273Z,100800.63
2023-04-08T12:18:13.304Z,100795.78
2023-04-08T12:20:43.178Z,100798.63
2023-04-08T12:23:13.229Z,100793.75
2023-04-08T12:25:43.868Z,100784.44
2023-04-08T12:28:16.104Z,100781.59
2023-04-08T12:30:47.317Z,100776.34
2023-04-08T12:33:17.774Z,100782.00
2023-04-08T12:35:48.988Z,100778.75
2023-04-08T12:38:19.473Z,100776.31
2023-04-08T12:40:50.277Z,100775.91
2023-04-08T12:43:24.009Z,100785.66
2023-04-08T12:45:54.818Z,100773.47
2023-04-08T12:48:24.832Z,100769.00
2023-04-08T12:50:55.359Z,100771.03
2023-04-08T12:53:25.796Z,100764.94
2023-04-08T12:55:58.026Z,100766.16
2023-04-08T12:58:29.621Z,100757.66
2023-04-08T13:01:00.212Z,100756.03
2023-04-08T13:03:32.281Z,100758.06
2023-04-08T13:06:02.850Z,100745.09
2023-04-08T13:08:33.267Z,100743.47
2023-04-08T13:11:03.817Z,100747.47
2023-04-08T13:13:36.974Z,100750.72
2023-04-08T13:16:07.367Z,100755.56
2023-04-08T13:18:38.461Z,100756.00
2023-04-08T13:21:09.197Z,100762.88
2023-04-08T13:23:39.309Z,100750.72
2023-04-08T13:26:09.959Z,100748.28
2023-04-08T13:28:55.886Z,100754.38
2023-04-08T13:31:27.900Z,100763.28
2023-04-08T13:33:58.567Z,100760.44
2023-04-08T13:36:29.441Z,100765.28
2023-04-08T13:39:00.434Z,100752.31
2023-04-08T13:41:31.111Z,100755.56
2023-04-08T13:44:03.484Z,100758.81
2023-04-08T13:46:33.671Z,100755.56
2023-04-08T13:49:03.890Z,100756.34
2023-04-08T13:51:34.333Z,100758.41
2023-04-08T13:54:04.381Z,100754.72
2023-04-08T13:56:34.914Z,100759.19
2023-04-08T13:59:07.729Z,100751.91
2023-04-08T14:01:38.640Z,100755.16
2023-04-08T14:04:09.210Z,100759.19
2023-04-08T14:06:39.754Z,100749.84
2023-04-08T14:09:11.080Z,100747.44
2023-04-08T14:11:41.713Z,100743.78
2023-04-08T14:14:13.896Z,100747.44
2023-04-08T14:16:44.366Z,100745.00
2023-04-08T14:19:14.341Z,100750.25
2023-04-08T14:21:44.841Z,100735.66
2023-04-08T14:24:15.420Z,100738.91
2023-04-08T14:26:46.075Z,100736.09
2023-04-08T14:29:18.646Z,100743.75
2023-04-08T14:31:48.616Z,100744.16
2023-04-08T14:34:18.852Z,100749.03
2023-04-08T14:36:49.235Z,100746.59
2023-04-08T14:39:18.940Z,100742.13
2023-04-08T14:41:49.058Z,100753.47
2023-04-08T14:44:21.144Z,100755.91
2023-04-08T14:46:52.212Z,100755.50
2023-04-08T14:49:22.144Z,100760.34
2023-04-08T14:51:53.353Z,100760.75
2023-04-08T14:54:24.092Z,100764.00
2023-04-08T14:56:54.739Z,100765.59
2023-04-08T14:59:26.938Z,100752.66
2023-04-08T15:01:57.281Z,100759.91
2023-04-08T15:04:27.833Z,100755.84
2023-04-08T15:06:58.269Z,100758.28
2023-04-08T15:09:29.816Z,100765.13
2023-04-08T15:12:00.512Z,100755.41
2023-04-08T15:14:33.027Z,100750.13
2023-04-08T15:17:06.862Z,100757.41
2023-04-08T15:19:37.515Z,100748.50
2023-04-08T15:22:08.045Z,100750.50
2023-04-08T15:24:38.659Z,100747.25
2023-04-08T15:27:09.321Z,100736.72
2023-04-08T15:29:40.991Z,100741.56
2023-04-08T15:32:10.941Z,100739.56
2023-04-08T15:34:40.968Z,100732.25
2023-04-08T15:37:11.388Z,100726.16
2023-04-08T15:39:42.028Z,100718.88
2023-04-08T15:42:12.303Z,100709.97
2023-04-08T15:44:44.203Z,100721.69
2023-04-08T15:47:14.839Z,100721.28
2023-04-08T15:49:44.687Z,100717.22
2023-04-08T15:52:15.117Z,100722.06
2023-04-08T15:54:45.541Z,100717.22
2023-04-08T15:57:16.402Z,100728.13
2023-04-08T15:59:47.994Z,100717.22
2023-04-08T16:02:18.595Z,100724.47
2023-04-08T16:04:49.240Z,100731.72
2023-04-08T16:07:19.768Z,100734.97
2023-04-08T16:09:50.945Z,100728.06
2023-04-08T16:12:21.445Z,100727.66
2023-04-08T16:14:53.685Z,100726.41
2023-04-08T16:17:24.168Z,100728.84
2023-04-08T16:19:54.499Z,100727.59
2023-04-08T16:22:24.696Z,100725.16
2023-04-08T16:24:55.056Z,100727.56
2023-04-08T16:27:25.115Z,100723.50
2023-04-08T16:29:57.928Z,100720.25
2023-04-08T16:32:28.390Z,100729.16
2023-04-08T16:34:59.063Z,100722.25
2023-04-08T16:37:29.586Z,100726.69
2023-04-08T16:40:00.263Z,100728.72
2023-04-08T16:42:30.289Z,100724.66
2023-04-08T16:45:02.971Z,100724.22
2023-04-08T16:47:33.407Z,100723.00
2023-04-08T16:50:04.026Z,100732.72
2023-04-08T16:52:34.615Z,100728.63
2023-04-08T16:55:04.865Z,100727.41
2023-04-08T16:57:35.377Z,100736.69
2023-04-08T17:00:08.847Z,100735.88
2023-04-08T17:02:39.346Z,100733.44
2023-04-08T17:05:10.814Z,100731.38
2023-04-08T17:07:41.305Z,100730.16
2023-04-08T17:10:12.598Z,100730.53
2023-04-08T17:12:43.617Z,100725.28
2023-04-08T17:15:16.807Z,100722.84
2023-04-08T17:17:48.315Z,100720.41
2023-04-08T17:20:18.971Z,100719.19
2023-04-08T17:22:49.394Z,100721.22
2023-04-08T17:25:20.249Z,100719.94
2023-04-08T17:27:50.752Z,100722.38
2023-04-08T17:30:22.973Z,100722.75
2023-04-08T17:32:53.538Z,100726.78
2023-04-08T17:35:24.071Z,100729.22
2023-04-08T17:37:53.871Z,100727.59
2023-04-08T17:40:24.132Z,100730.75
2023-04-08T17:42:54.846Z,100723.47
2023-04-08T17:45:27.390Z,100727.91
2023-04-08T17:47:59.501Z,100734.78
2023-04-08T17:50:30.148Z,100735.16
2023-04-08T17:53:01.118Z,100734.75
2023-04-08T17:55:31.789Z,100731.91
2023-04-08T17:58:02.679Z,100740.81
2023-04-08T18:00:35.236Z,100733.91
2023-04-08T18:03:06.364Z,100733.91
2023-04-08T18:05:36.972Z,100729.47
2023-04-08T18:08:07.727Z,100737.94
2023-04-08T18:10:39.407Z,100742.78
2023-04-08T18:13:11.695Z,100744.81
2023-04-08T18:15:43.995Z,100744.81
2023-04-08T18:18:18.847Z,100753.28
2023-04-08T18:20:49.398Z,100755.69
2023-04-08T18:23:19.900Z,100748.84
2023-04-08T18:25:51.048Z,100756.88
2023-04-08T18:28:22.900Z,100754.06
2023-04-08T18:30:55.572Z,100761.34
2023-04-08T18:33:26.220Z,100761.75
2023-04-08T18:35:58.915Z,100752.44
2023-04-08T18:38:29.628Z,100758.09
2023-04-08T18:41:00.051Z,100764.16
2023-04-08T18:43:30.691Z,100761.31
2023-04-08T18:46:03.315Z,100776.66
2023-04-08T18:48:33.623Z,100778.69
2023-04-08T18:51:04.294Z,100769.38
2023-04-08T18:53:34.373Z,100773.03
2023-04-08T18:56:05.197Z,100776.22
2023-04-08T18:58:35.179Z,100773.41
2023-04-08T19:01:09.866Z,100774.22
2023-04-08T19:03:41.041Z,100769.78
2023-04-08T19:06:13.487Z,100777.44
2023-04-08T19:08:43.683Z,100775.81
2023-04-08T19:11:14.186Z,100775.81
2023-04-08T19:13:44.986Z,100777.00
2023-04-08T19:16:17.505Z,100775.00
2023-04-08T19:18:48.018Z,100768.13
2023-04-08T19:21:18.613Z,100767.28
2023-04-08T19:23:49.644Z,100767.28
2023-04-08T19:26:19.786Z,100770.13
2023-04-08T19:28:50.280Z,100769.31
2023-04-08T19:31:23.054Z,100766.47
2023-04-08T19:33:53.604Z,100756.38
2023-04-08T19:36:24.107Z,100757.56
2023-04-08T19:38:54.600Z,100761.59
2023-04-08T19:41:25.266Z,100763.63
2023-04-08T19:43:55.779Z,100756.34
2023-04-08T19:46:28.321Z,100747.03
2023-04-08T19:48:59.402Z,100737.75
2023-04-08T19:51:31.478Z,100730.47
2023-04-08T19:54:01.658Z,100735.69
2023-04-08T19:56:34.497Z,100732.06
2023-04-08T19:59:05.007Z,100739.72
2023-04-08T20:01:39.623Z,100737.28
2023-04-08T20:04:10.421Z,100734.84
2023-04-08T20:06:40.984Z,100732.41
2023-04-08T20:09:11.495Z,100727.94
2023-04-08T20:11:42.536Z,100718.66
2023-04-08T20:14:13.017Z,100710.56
2023-04-08T20:16:45.198Z,100694.81
2023-04-08T20:19:15.243Z,100700.03
2023-04-08T20:21:45.304Z,100700.41
2023-04-08T20:24:15.258Z,100695.97
2023-04-08T20:26:45.807Z,100692.31
2023-04-08T20:29:16.662Z,100696.34
2023-04-08T20:31:50.171Z,100694.72
2023-04-08T20:34:20.656Z,100696.75
2023-04-08T20:36:51.354Z,100695.13
2023-04-08T20:39:22.956Z,100694.31
2023-04-08T20:41:53.620Z,100686.22
2023-04-08T20:44:24.247Z,100682.59
2023-04-08T20:46:57.110Z,100682.94
2023-04-08T20:49:27.569Z,100694.22
2023-04-08T20:51:59.368Z,100680.50
2023-04-08T20:54:31.626Z,100687.34
2023-04-08T20:57:02.219Z,100691.38
2023-04-08T20:59:33.600Z,100690.19
2023-04-08T21:02:06.903Z,100690.19
2023-04-08T21:04:38.003Z,100680.06
2023-04-08T21:07:08.478Z,100685.72
2023-04-08T21:09:39.298Z,100688.56
2023-04-08T21:12:09.828Z,100678.88
2023-04-08T21:14:39.865Z,100678.88
2023-04-08T21:17:12.425Z,100665.56
2023-04-08T21:19:42.993Z,100655.47
2023-04-08T21:22:13.546Z,100672.41
2023-04-08T21:24:44.041Z,100682.91
2023-04-08T21:27:14.594Z,100680.06
2023-04-08T21:29:44.530Z,100672.41
2023-04-08T21:32:17.202Z,100675.63
2023-04-08T21:34:48.394Z,100692.22
2023-04-08T21:37:18.981Z,100696.22
2023-04-08T21:39:49.541Z,100688.13
2023-04-08T21:42:23.608Z,100676.00
2023-04-08T21:44:54.459Z,100662.28
2023-04-08T21:47:26.390Z,100660.25
2023-04-08T21:49:56.998Z,100654.16
2023-04-08T21:52:27.244Z,100644.91
2023-04-08T21:54:57.749Z,100649.34
2023-04-08T21:57:27.512Z,100653.38
2023-04-08T21:59:57.672Z,100636.41
2023-04-08T22:02:30.317Z,100644.91
2023-04-08T22:05:01.151Z,100649.72
2023-04-08T22:07:31.438Z,100633.97
2023-04-08T22:10:02.146Z,100616.22
2023-04-08T22:12:33.043Z,100606.09
2023-04-08T22:15:02.862Z,100614.16
2023-04-08T22:17:34.918Z,100610.50
2023-04-08T22:20:05.737Z,100620.97
2023-04-08T22:22:36.320Z,100623.41
2023-04-08T22:25:07.225Z,100628.22
2023-04-08T22:27:37.112Z,100617.69
2023-04-08T22:30:08.974Z,100607.59
2023-04-08T22:32:41.720Z,100609.59
2023-04-08T22:35:13.077Z,100595.03
2023-04-08T22:37:43.359Z,100594.59
2023-04-08T22:40:14.419Z,100602.28
2023-04-08T22:42:44.888Z,100614.38
2023-04-08T22:45:15.380Z,100625.66
2023-04-08T22:47:47.077Z,100634.16
2023-04-08T22:50:17.803Z,100634.53
2023-04-08T22:52:48.408Z,100630.09
2023-04-08T22:55:19.291Z,100611.13
2023-04-08T22:57:49.820Z,100613.94
2023-04-08T23:00:20.525Z,100637.38
2023-04-08T23:02:52.962Z,100673.25
2023-04-08T23:05:23.617Z,100671.25
2023-04-08T23:07:54.420Z,100636.53
2023-04-08T23:10:24.897Z,100605.47
2023-04-08T23:12:55.396Z,100596.59
2023-04-08T23:15:25.877Z,100586.50
2023-04-08T23:17:58.060Z,100575.97
2023-04-08T23:20:28.609Z,100582.81
2023-04-08T23:22:59.072Z,100590.06
2023-04-08T23:25:29.600Z,100588.41
2023-04-08T23:27:59.615Z,100587.22
2023-04-08T23:30:30.178Z,100592.88
2023-04-08T23:33:02.241Z,100599.31
2023-04-08T23:35:32.646Z,100586.41
2023-04-08T23:38:03.362Z,100586.41
2023-04-08T23:40:33.962Z,100572.28
2023-04-08T23:43:04.546Z,100577.13
2023-04-08T23:45:35.201Z,100589.22
2023-04-08T23:48:10.021Z,100597.69
2023-04-08T23:50:40.249Z,100601.34
2023-04-08T23:53:10.196Z,100606.16
2023-04-08T23:55:40.769Z,100603.34
2023-04-08T23:58:11.413Z,100587.22
